Terminal Aerodrome Forecast
Issued by NWS

Home | Current Version | Previous Version | Graphics & Text | Print | Product List | Glossary On
Versions: 1 2 3 4 5 6 7 8 9 10 11 12 13 14 15 16 17 18
000
FTUS43 KBIS 150159 AAA
TAFDIK
TAF AMD
KDIK 150159Z 1502/1524 29011KT P6SM BKN090 OVC120
     FM150300 30012G17KT P6SM SCT080 BKN120
      TEMPO 1503/1505 32019G21KT BKN015
     FM150500 31017G24KT P6SM FEW010 BKN018 OVC035
     FM151100 32011KT P6SM FEW030
     FM151700 VRB04KT P6SM SCT200
     FM152100 11006KT P6SM SCT200=

USA.gov is the U.S. government's official web portal to all federal, state and local government web resources and services.